createdAt,value
2018-09-08T00:04:45.061Z,16.00
2018-09-08T00:09:49.287Z,15.90
2018-09-08T00:14:52.549Z,15.90
2018-09-08T00:20:01.895Z,15.70
2018-09-08T00:25:11.344Z,15.60
2018-09-08T00:30:16.160Z,15.50
2018-09-08T00:35:20.185Z,15.50
2018-09-08T00:40:24.277Z,15.60
2018-09-08T00:45:28.405Z,15.50
2018-09-08T00:50:32.662Z,15.40
2018-09-08T00:55:36.793Z,15.30
2018-09-08T01:00:41.046Z,15.30
2018-09-08T01:05:45.222Z,15.30
2018-09-08T01:10:49.391Z,15.20
2018-09-08T01:15:53.718Z,15.10
2018-09-08T01:20:58.405Z,15.00
2018-09-08T01:26:02.982Z,14.90
2018-09-08T01:31:07.078Z,14.70
2018-09-08T01:36:11.200Z,14.60
2018-09-08T01:41:15.444Z,14.60
2018-09-08T01:46:19.574Z,14.60
2018-09-08T01:51:23.761Z,14.60
2018-09-08T01:56:27.920Z,14.70
2018-09-08T02:01:31.946Z,14.70
2018-09-08T02:06:36.095Z,14.60
2018-09-08T02:11:40.235Z,14.50
2018-09-08T02:16:44.394Z,14.40
2018-09-08T02:21:48.528Z,14.30
2018-09-08T02:26:52.691Z,14.40
2018-09-08T02:31:57.264Z,14.60
2018-09-08T02:37:01.408Z,14.50
2018-09-08T02:42:06.698Z,14.40
2018-09-08T02:47:10.859Z,14.20
2018-09-08T02:52:14.180Z,14.20
2018-09-08T02:57:17.081Z,14.30
2018-09-08T03:02:20.068Z,14.40
2018-09-08T03:07:22.989Z,14.50
2018-09-08T03:12:25.967Z,14.30
2018-09-08T03:17:28.939Z,14.10
2018-09-08T03:22:32.359Z,14.10
2018-09-08T03:27:35.294Z,14.10
2018-09-08T03:32:38.233Z,14.20
2018-09-08T03:37:41.172Z,14.20
2018-09-08T03:42:44.109Z,14.00
2018-09-08T03:47:47.130Z,13.90
2018-09-08T03:52:50.341Z,13.90
2018-09-08T03:57:53.322Z,14.00
2018-09-08T04:02:57.402Z,13.90
2018-09-08T04:08:01.591Z,13.80
2018-09-08T04:13:05.882Z,13.70
2018-09-08T04:18:11.050Z,13.60
2018-09-08T04:23:15.213Z,13.40
2018-09-08T04:28:19.352Z,13.20
2018-09-08T04:33:23.613Z,13.30
2018-09-08T04:38:27.747Z,13.30
2018-09-08T04:43:32.611Z,13.30
2018-09-08T04:48:36.692Z,13.20
2018-09-08T04:53:40.816Z,13.00
2018-09-08T04:58:44.963Z,12.90
2018-09-08T05:03:49.158Z,13.00
2018-09-08T05:08:53.367Z,12.90
2018-09-08T05:13:57.607Z,12.90
2018-09-08T05:19:01.737Z,12.90
2018-09-08T05:24:05.943Z,12.90
2018-09-08T05:29:10.045Z,13.00
2018-09-08T05:34:14.055Z,13.10
2018-09-08T05:39:18.638Z,13.20
2018-09-08T05:44:23.222Z,13.50
2018-09-08T05:49:27.308Z,13.80
2018-09-08T05:54:31.413Z,14.20
2018-09-08T05:59:35.578Z,14.40
2018-09-08T06:04:39.712Z,14.70
2018-09-08T06:09:43.793Z,15.00
2018-09-08T06:14:47.921Z,15.10
2018-09-08T06:19:52.024Z,15.30
2018-09-08T06:24:56.797Z,15.40
2018-09-08T06:30:01.583Z,15.40
2018-09-08T06:35:11.417Z,15.50
2018-09-08T06:40:16.399Z,15.50
2018-09-08T06:45:21.144Z,15.40
2018-09-08T06:50:26.026Z,15.40
2018-09-08T06:55:30.442Z,15.50
2018-09-08T07:00:34.586Z,15.90
2018-09-08T07:05:38.703Z,16.10
2018-09-08T07:10:42.801Z,16.30
2018-09-08T07:15:46.918Z,16.60
2018-09-08T07:20:51.095Z,16.80
2018-09-08T07:25:55.332Z,16.80
2018-09-08T07:30:59.509Z,17.10
2018-09-08T07:36:03.554Z,17.20
2018-09-08T07:41:07.782Z,17.50
2018-09-08T07:46:11.986Z,17.70
2018-09-08T07:51:17.027Z,17.70
2018-09-08T07:56:22.586Z,18.00
2018-09-08T08:01:27.339Z,18.30
2018-09-08T08:06:55.308Z,18.40
2018-09-08T08:11:59.467Z,18.70
2018-09-08T08:17:03.572Z,19.10
2018-09-08T08:22:08.031Z,18.90
2018-09-08T08:27:12.159Z,19.00
2018-09-08T08:32:16.632Z,19.10
2018-09-08T08:37:21.417Z,19.10
2018-09-08T08:42:25.464Z,19.40
2018-09-08T08:47:29.796Z,19.60
2018-09-08T08:52:45.041Z,19.70
2018-09-08T08:57:49.282Z,19.70
2018-09-08T09:02:53.430Z,19.70
2018-09-08T09:07:58.023Z,19.90
2018-09-08T09:13:02.881Z,20.20
2018-09-08T09:18:07.177Z,20.40
2018-09-08T09:24:20.533Z,20.60
2018-09-08T09:29:24.436Z,20.70
2018-09-08T09:34:28.629Z,20.70
2018-09-08T09:39:33.766Z,20.90
2018-09-08T09:44:37.992Z,20.90
2018-09-08T09:49:42.154Z,21.10
2018-09-08T09:54:46.273Z,21.20
2018-09-08T09:59:50.369Z,21.10
2018-09-08T10:04:54.594Z,20.80
2018-09-08T10:09:58.727Z,21.10
2018-09-08T10:15:02.781Z,21.70
2018-09-08T10:20:10.717Z,21.70
2018-09-08T10:25:16.071Z,21.50
2018-09-08T10:30:21.185Z,21.70
2018-09-08T10:35:28.614Z,22.20
2018-09-08T10:40:32.722Z,22.10
2018-09-08T10:45:36.984Z,21.70
2018-09-08T10:50:41.182Z,21.90
2018-09-08T10:55:45.912Z,22.20
2018-09-08T11:00:50.055Z,22.40
2018-09-08T11:05:54.129Z,22.50
2018-09-08T11:10:58.461Z,22.80
2018-09-08T11:16:03.369Z,24.30
2018-09-08T11:21:07.474Z,25.20
2018-09-08T11:26:11.637Z,26.10
2018-09-08T11:31:15.752Z,27.10
2018-09-08T11:36:19.895Z,27.80
2018-09-08T11:41:23.964Z,28.90
2018-09-08T11:46:28.662Z,29.90
2018-09-08T11:51:32.748Z,29.20
2018-09-08T11:56:36.867Z,29.10
2018-09-08T12:01:41.722Z,29.40
2018-09-08T12:06:45.939Z,29.60
2018-09-08T12:11:50.031Z,28.80
2018-09-08T12:16:54.086Z,27.90
2018-09-08T12:21:58.755Z,28.40
2018-09-08T12:27:02.840Z,29.40
2018-09-08T12:32:06.999Z,29.60
2018-09-08T12:37:15.635Z,29.70
2018-09-08T12:42:20.428Z,28.80
2018-09-08T12:47:25.557Z,29.30
2018-09-08T12:52:29.726Z,28.40
2018-09-08T12:57:34.144Z,28.50
2018-09-08T13:02:38.225Z,28.60
2018-09-08T13:07:42.426Z,28.90
2018-09-08T13:12:46.554Z,27.20
2018-09-08T13:17:51.123Z,25.80
2018-09-08T13:22:55.295Z,24.60
2018-09-08T13:27:59.436Z,23.90
2018-09-08T13:33:04.369Z,24.10
2018-09-08T13:38:08.555Z,23.70
2018-09-08T13:43:12.706Z,23.60
2018-09-08T13:48:16.769Z,25.50
2018-09-08T13:53:21.027Z,25.70
2018-09-08T13:58:25.171Z,25.70
2018-09-08T14:03:29.836Z,25.20
2018-09-08T14:08:33.950Z,24.30
2018-09-08T14:13:38.109Z,23.80
2018-09-08T14:18:42.245Z,23.50
2018-09-08T14:23:46.324Z,23.80
2018-09-08T14:28:50.619Z,23.80
2018-09-08T14:33:54.733Z,24.60
2018-09-08T14:38:59.068Z,25.30
2018-09-08T14:44:03.138Z,27.60
2018-09-08T14:49:07.432Z,30.10
2018-09-08T14:54:11.576Z,31.40
2018-09-08T14:59:15.697Z,30.50
2018-09-08T15:04:20.080Z,29.80
2018-09-08T15:09:25.577Z,26.50
2018-09-08T15:14:29.826Z,24.80
2018-09-08T15:19:33.962Z,25.60
2018-09-08T15:24:38.068Z,27.70
2018-09-08T15:29:42.472Z,29.20
2018-09-08T15:34:46.831Z,29.00
2018-09-08T15:39:50.940Z,29.40
2018-09-08T15:44:55.070Z,30.10
2018-09-08T15:49:59.223Z,29.10
2018-09-08T15:55:03.337Z,26.00
2018-09-08T16:00:07.479Z,24.30
2018-09-08T16:05:11.653Z,24.80
2018-09-08T16:10:17.355Z,25.80
2018-09-08T16:15:22.125Z,28.70
2018-09-08T16:20:26.561Z,29.40
2018-09-08T16:25:31.304Z,29.80
2018-09-08T16:30:35.403Z,26.60
2018-09-08T16:35:39.540Z,24.40
2018-09-08T16:40:43.743Z,23.50
2018-09-08T16:45:47.851Z,22.90
2018-09-08T16:50:51.966Z,22.50
2018-09-08T16:55:56.125Z,22.20
2018-09-08T17:01:00.175Z,21.90
2018-09-08T17:06:04.297Z,21.70
2018-09-08T17:11:08.470Z,21.70
2018-09-08T17:16:12.522Z,21.30
2018-09-08T17:21:16.616Z,20.90
2018-09-08T17:26:20.930Z,20.60
2018-09-08T17:31:25.033Z,20.40
2018-09-08T17:36:29.176Z,20.10
2018-09-08T17:41:34.858Z,19.90
2018-09-08T17:46:39.098Z,19.60
2018-09-08T17:51:43.207Z,19.30
2018-09-08T17:56:47.394Z,18.80
2018-09-08T18:01:51.604Z,18.30
2018-09-08T18:06:56.459Z,17.90
2018-09-08T18:12:02.246Z,17.80
2018-09-08T18:17:06.538Z,17.60
2018-09-08T18:22:11.023Z,17.60
2018-09-08T18:27:16.267Z,17.40
2018-09-08T18:32:22.036Z,17.30
2018-09-08T18:37:27.280Z,17.20
2018-09-08T18:42:34.316Z,17.00
2018-09-08T18:49:46.713Z,16.90
2018-09-08T18:54:52.259Z,16.60
2018-09-08T18:59:56.816Z,16.40
2018-09-08T19:05:04.957Z,16.40
2018-09-08T19:10:11.009Z,16.50
2018-09-08T19:15:17.221Z,16.40
2018-09-08T19:20:27.022Z,16.30
2018-09-08T19:25:31.215Z,16.30
2018-09-08T19:30:35.343Z,16.10
2018-09-08T19:35:40.276Z,15.90
2018-09-08T19:40:46.767Z,15.80
2018-09-08T19:45:51.219Z,15.90
2018-09-08T19:50:55.265Z,16.00
2018-09-08T19:55:59.475Z,16.00
2018-09-08T20:01:03.577Z,15.90
2018-09-08T20:06:07.674Z,15.70
2018-09-08T20:11:11.940Z,15.70
2018-09-08T20:16:16.394Z,15.70
2018-09-08T20:21:21.275Z,15.70
2018-09-08T20:26:25.611Z,15.50
2018-09-08T20:31:30.521Z,15.40
2018-09-08T20:36:34.659Z,15.10
2018-09-08T20:41:39.401Z,15.00
2018-09-08T20:46:43.468Z,14.80
2018-09-08T20:51:47.529Z,14.80
2018-09-08T20:56:51.624Z,14.70
2018-09-08T21:01:55.745Z,14.70
2018-09-08T21:06:59.810Z,14.60
2018-09-08T21:12:04.665Z,14.40
2018-09-08T21:17:09.348Z,14.20
2018-09-08T21:22:13.480Z,14.00
2018-09-08T21:27:17.654Z,13.90
2018-09-08T21:32:21.762Z,13.80
2018-09-08T21:37:26.162Z,13.70
2018-09-08T21:42:30.502Z,13.70
2018-09-08T21:47:35.413Z,13.80
2018-09-08T21:52:40.214Z,13.80
2018-09-08T21:57:44.399Z,13.80
2018-09-08T22:02:48.511Z,13.70
2018-09-08T22:07:52.548Z,13.60
2018-09-08T22:12:56.691Z,13.40
2018-09-08T22:18:00.822Z,13.30
2018-09-08T22:23:05.489Z,13.20
2018-09-08T22:28:09.570Z,13.20
2018-09-08T22:33:14.553Z,13.00
2018-09-08T22:38:18.618Z,12.90
2018-09-08T22:43:23.625Z,12.80
2018-09-08T22:48:27.687Z,12.70
2018-09-08T22:53:31.804Z,12.60
2018-09-08T22:58:36.004Z,12.50
2018-09-08T23:03:40.668Z,12.50
2018-09-08T23:08:44.871Z,12.50
2018-09-08T23:13:49.502Z,12.50
2018-09-08T23:18:54.444Z,12.50
2018-09-08T23:23:58.544Z,12.40
2018-09-08T23:29:02.736Z,12.20
2018-09-08T23:34:07.020Z,12.10
2018-09-08T23:39:11.053Z,12.00
2018-09-08T23:44:15.250Z,12.00
2018-09-08T23:49:20.132Z,12.00
2018-09-08T23:54:24.262Z,11.90
2018-09-08T23:59:28.761Z,11.90
